Nbp Island — V2FH3 — position and weather

sailwx.info

Track history (hours):
 
Tides and Currents Weather Stations Pressure Air Temp Water Temp Dewpoint Dewpoint Depression Visibility Wind Speed Wind Dir Waves Ship Positions

Nbp Island

Last reported at 2015-Jun-27 03:23 UTC. Time now 2015-Jul-02 08:09 UTC.
Position N 59°41' E 020°44'.

Length 107 m; draft 5.5 m.

Type: Cargo ship. MMSI: 305674000.

Date/timePositionNaut miles runAvg speedWind from/ knotsBaromVisibWave heightAir tempDewpointWater temp
2015-Jun-27 03:23N 59°41' E 020°44'1011.2
2015-Jun-27 02:31N 59°41' E 021°04'9 9.6
2015-Jun-27 01:34N 59°45' E 021°21'1010.0
2015-Jun-27 00:33N 59°53' E 021°31'6 0.1
2015-Jun-25 08:33N 59°57' E 021°40'1111.2
2015-Jun-25 07:33N 59°50' E 021°23'1010.2
2015-Jun-25 06:33N 59°40' E 021°18'29610.6
2015-Jun-24 02:33N 55°44' E 015°44'1111.0
2015-Jun-24 01:30N 55°38' E 015°26'1010.9
2015-Jun-24 00:33N 55°33' E 015°10'1110.7
2015-Jun-23 23:33N 55°28' E 014°54'1110.7
2015-Jun-23 22:33N 55°22' E 014°38'1110.7
2015-Jun-23 21:33N 55°14' E 014°26'182 7.0
2015-Jun-22 19:28N 57°03' E 010°03'0 0.0
2015-Jun-22 18:31N 57°03' E 010°03'0 0.0
2015-Jun-22 17:25N 57°03' E 010°03'0 0.0
2015-Jun-22 16:22N 57°03' E 010°03'0 0.0
2015-Jun-22 15:28N 57°03' E 010°03'0 0.0
2015-Jun-22 14:28N 57°03' E 010°03'0 0.0
2015-Jun-22 13:31N 57°03' E 010°03'2 1.9
2015-Jun-22 12:33N 57°02' E 010°06'39 9.3
2015-Jun-22 08:23N 56°55' E 011°16'8 9.7
2015-Jun-22 07:33N 56°57' E 011°30'1010.0
2015-Jun-22 06:33N 57°07' E 011°32'1010.1
2015-Jun-22 05:33N 57°17' E 011°30'10 9.9
2015-Jun-22 04:33N 57°27' E 011°25'10 9.8
2015-Jun-22 03:33N 57°34' E 011°12'1010.3
2015-Jun-22 02:33N 57°41' E 010°58'28110.0
2015-Jun-20 22:22N 54°20' E 005°06'911.2
2015-Jun-20 21:31N 54°12' E 004°58'1111.2
2015-Jun-20 20:33N 54°03' E 004°47'17210.1
2015-Jun-20 03:33N 51°35' E 002°22'1111.5
2015-Jun-20 02:33N 51°26' E 002°12'1211.5
2015-Jun-20 01:33N 51°15' E 002°05'1211.6
2015-Jun-20 00:33N 51°08' E 001°50'1211.3
2015-Jun-19 23:32N 50°60' E 001°37'10 9.9
2015-Jun-19 22:33N 50°52' E 001°28'9 8.7
2015-Jun-19 21:33N 50°44' E 001°23'123 9.9
2015-Jun-19 09:14N 50°01' W 001°36'1413.7
2015-Jun-19 08:13N 49°57' W 001°57'2111.6
2015-Jun-19 06:25N 49°52' W 002°28'21 9.3
2015-Jun-19 04:12N 49°45' W 002°59'5 8.5
2015-Jun-19 03:33N 49°42' W 003°06'11 8.2
2015-Jun-19 02:13N 49°37' W 003°21'9 8.0
2015-Jun-19 01:06N 49°32' W 003°33'5 8.1
2015-Jun-19 00:28N 49°30' W 003°40'8 8.4
2015-Jun-18 23:33N 49°26' W 003°50'10 8.7
2015-Jun-18 22:21N 49°21' W 004°04'7 9.3
2015-Jun-18 21:33N 49°17' W 004°13'  
Track history (hours):
 
Tides and Currents Weather Stations Pressure Air Temp Water Temp Dewpoint Dewpoint Depression Visibility Wind Speed Wind Dir Waves Ship Positions

Nbp Island

Last reported at 2015-Jun-27 03:23 UTC. Time now 2015-Jul-02 08:09 UTC.
Position N 59°41' E 020°44'.

Length 107 m; draft 5.5 m.

Type: Cargo ship. MMSI: 305674000.

Date/timePositionNaut miles runAvg speedWind from/ knotsBaromVisibWave heightAir tempDewpointWater temp
2015-Jun-27 03:23N 59°41' E 020°44'1011.2
2015-Jun-27 02:31N 59°41' E 021°04'9 9.6
2015-Jun-27 01:34N 59°45' E 021°21'1010.0
2015-Jun-27 00:33N 59°53' E 021°31'6 0.1
2015-Jun-25 08:33N 59°57' E 021°40'1111.2
2015-Jun-25 07:33N 59°50' E 021°23'1010.2
2015-Jun-25 06:33N 59°40' E 021°18'29610.6
2015-Jun-24 02:33N 55°44' E 015°44'1111.0
2015-Jun-24 01:30N 55°38' E 015°26'1010.9
2015-Jun-24 00:33N 55°33' E 015°10'1110.7
2015-Jun-23 23:33N 55°28' E 014°54'1110.7
2015-Jun-23 22:33N 55°22' E 014°38'1110.7
2015-Jun-23 21:33N 55°14' E 014°26'182 7.0
2015-Jun-22 19:28N 57°03' E 010°03'0 0.0
2015-Jun-22 18:31N 57°03' E 010°03'0 0.0
2015-Jun-22 17:25N 57°03' E 010°03'0 0.0
2015-Jun-22 16:22N 57°03' E 010°03'0 0.0
2015-Jun-22 15:28N 57°03' E 010°03'0 0.0
2015-Jun-22 14:28N 57°03' E 010°03'0 0.0
2015-Jun-22 13:31N 57°03' E 010°03'2 1.9
2015-Jun-22 12:33N 57°02' E 010°06'39 9.3
2015-Jun-22 08:23N 56°55' E 011°16'8 9.7
2015-Jun-22 07:33N 56°57' E 011°30'1010.0
2015-Jun-22 06:33N 57°07' E 011°32'1010.1
2015-Jun-22 05:33N 57°17' E 011°30'10 9.9
2015-Jun-22 04:33N 57°27' E 011°25'10 9.8
2015-Jun-22 03:33N 57°34' E 011°12'1010.3
2015-Jun-22 02:33N 57°41' E 010°58'28110.0
2015-Jun-20 22:22N 54°20' E 005°06'911.2
2015-Jun-20 21:31N 54°12' E 004°58'1111.2
2015-Jun-20 20:33N 54°03' E 004°47'17210.1
2015-Jun-20 03:33N 51°35' E 002°22'1111.5
2015-Jun-20 02:33N 51°26' E 002°12'1211.5
2015-Jun-20 01:33N 51°15' E 002°05'1211.6
2015-Jun-20 00:33N 51°08' E 001°50'1211.3
2015-Jun-19 23:32N 50°60' E 001°37'10 9.9
2015-Jun-19 22:33N 50°52' E 001°28'9 8.7
2015-Jun-19 21:33N 50°44' E 001°23'123 9.9
2015-Jun-19 09:14N 50°01' W 001°36'1413.7
2015-Jun-19 08:13N 49°57' W 001°57'2111.6
2015-Jun-19 06:25N 49°52' W 002°28'21 9.3
2015-Jun-19 04:12N 49°45' W 002°59'5 8.5
2015-Jun-19 03:33N 49°42' W 003°06'11 8.2
2015-Jun-19 02:13N 49°37' W 003°21'9 8.0
2015-Jun-19 01:06N 49°32' W 003°33'5 8.1
2015-Jun-19 00:28N 49°30' W 003°40'8 8.4
2015-Jun-18 23:33N 49°26' W 003°50'10 8.7
2015-Jun-18 22:21N 49°21' W 004°04'7 9.3
2015-Jun-18 21:33N 49°17' W 004°13'  

Dump ship's entire track history